Prevelis — SYDL — position and weather

sailwx.info

Track history (hours):
 
Tides and Currents Weather Stations Pressure Air Temp Water Temp Dewpoint Dewpoint Depression Visibility Wind Speed Wind Dir Waves Ship Positions

Prevelis

Last reported at 2015-May-27 17:10 UTC. Time now 2015-May-28 04:06 UTC.
Position N 35°56' E 027°22'.

Length 143 m; draft 5.5 m.

Type: Passenger vessel. MMSI: 239297000.

Date/timePositionNaut miles runAvg speedWind from/ knotsBaromVisibWave heightAir tempDewpointWater temp
2015-May-27 17:10N 35°56' E 027°22'2113.0
2015-May-27 15:31N 35°35' E 027°15'12 5.9
2015-May-27 13:28N 35°23' E 027°12'1410.6
2015-May-27 12:08N 35°25' E 026°55'1115.2
2015-May-27 11:24N 35°22' E 026°42'5610.9
2015-May-27 06:14N 36°00' E 025°51'1318.4
2015-May-27 05:33N 36°13' E 025°48'1010.0
2015-May-27 04:33N 36°20' E 025°40'1615.7
2015-May-27 03:33N 36°21' E 025°20'5 4.6
2015-May-27 02:33N 36°23' E 025°26'5 5.3
2015-May-27 01:33N 36°22' E 025°19'1817.6
2015-May-27 00:31N 36°31' E 024°59'8717.6
2015-May-26 19:34N 37°36' E 023°47'1716.5
2015-May-26 18:33N 37°51' E 023°37'6 6.2
2015-May-26 17:32N 37°57' E 023°38'0 0.0
2015-May-26 16:33N 37°57' E 023°38'0 0.0
2015-May-26 15:34N 37°57' E 023°38'0 0.0
2015-May-26 14:28N 37°57' E 023°38'0 0.0
2015-May-26 13:32N 37°57' E 023°38'2 2.1
2015-May-26 12:33N 37°55' E 023°37'1818.2
2015-May-26 11:33N 37°38' E 023°45'1918.9
2015-May-26 10:33N 37°20' E 023°36'2519.3
2015-May-26 09:15N 36°57' E 023°26'2019.2
2015-May-26 08:12N 36°37' E 023°18'5012.2
2015-May-26 04:07N 35°56' E 023°52'1118.9
2015-May-26 03:33N 35°49' E 024°01'83 7.2
2015-May-25 16:06N 37°07' E 023°29'1018.4
2015-May-25 15:34N 37°16' E 023°34'1818.1
2015-May-25 14:34N 37°34' E 023°41'1717.2
2015-May-25 13:34N 37°51' E 023°37'6 6.4
2015-May-25 12:33N 37°57' E 023°38'0 0.0
2015-May-25 11:33N 37°57' E 023°38'0 0.0
2015-May-25 10:31N 37°57' E 023°38'0 0.0
2015-May-25 09:29N 37°57' E 023°38'0 0.0
2015-May-25 08:32N 37°57' E 023°38'0 0.0
2015-May-25 07:33N 37°57' E 023°38'0 0.0
2015-May-25 06:31N 37°57' E 023°38'0 0.0
2015-May-25 05:25N 37°57' E 023°38'0 0.0
2015-May-25 04:32N 37°57' E 023°38'0 0.0
2015-May-25 03:33N 37°57' E 023°38'1 1.5
2015-May-25 02:33N 37°56' E 023°37'1717.3
2015-May-25 01:33N 37°40' E 023°45'2018.6
2015-May-25 00:28N 37°21' E 023°37'2418.8
2015-May-24 23:12N 36°59' E 023°25'10313.5
2015-May-24 15:33N 35°28' E 024°25'7 0.4
2015-May-24 00:28N 35°22' E 024°29'0 0.0
2015-May-23 23:22N 35°22' E 024°29'0 0.0
2015-May-23 20:33N 35°22' E 024°29'1514.9
2015-May-23 19:34N 35°35' E 024°19'2019.2
2015-May-23 18:32N 35°48' E 024°01'2319.3
2015-May-23 17:22N 35°59' E 023°37'20 2.0
2015-May-23 07:12N 35°51' E 023°60'1117.6
2015-May-23 06:33N 35°42' E 024°09'1818.4
2015-May-23 05:33N 35°29' E 024°24'7 7.1
2015-May-23 04:32N 35°22' E 024°29'0 0.0
2015-May-23 03:32N 35°22' E 024°29'10 9.6
2015-May-23 02:33N 35°32' E 024°29'1918.7
2015-May-23 01:33N 35°51' E 024°28'1716.8
2015-May-23 00:32N 36°02' E 024°13'2418.6
2015-May-22 23:15N 36°09' E 023°44'7212.0
2015-May-22 17:13N 37°21' E 023°37'1218.0
2015-May-22 16:33N 37°33' E 023°40'1818.0
2015-May-22 15:33N 37°50' E 023°37'7 6.3
2015-May-22 14:30N 37°57' E 023°38'0 0.0
2015-May-22 13:33N 37°57' E 023°38'0 0.0
2015-May-22 12:31N 37°57' E 023°38'0 0.0
2015-May-22 10:32N 37°57' E 023°38'0 0.0
2015-May-22 09:33N 37°57' E 023°38'0 0.0
2015-May-22 08:31N 37°57' E 023°38'0 0.0
2015-May-22 07:31N 37°57' E 023°38'0 0.0
2015-May-22 06:32N 37°57' E 023°38'0 0.0
2015-May-22 05:33N 37°57' E 023°38'1111.5
2015-May-22 04:33N 37°46' E 023°42'1918.9
2015-May-22 03:33N 37°31' E 023°57'8118.8
2015-May-21 23:14N 36°30' E 025°04'1318.9
2015-May-21 22:33N 36°23' E 025°18'6 6.1
2015-May-21 21:32N 36°23' E 025°26'5 4.5
2015-May-21 20:33N 36°19' E 025°27'1615.1
2015-May-21 19:31N 36°21' E 025°46'1516.1
2015-May-21 18:33N 36°05' E 025°50'5410.9
2015-May-21 13:34N 35°22' E 026°31'1817.9
2015-May-21 12:32N 35°25' E 026°53'1511.3
2015-May-21 11:14N 35°24' E 027°11'12 5.7
2015-May-21 09:12N 35°36' E 027°15'17 1.0
2015-May-20 16:25N 35°53' E 027°19'1110.6
2015-May-20 15:20N 35°42' E 027°15'72 7.4
2015-May-20 05:33N 36°03' E 025°50'1817.5
2015-May-20 04:33N 36°20' E 025°46'9 8.6
2015-May-20 03:33N 36°19' E 025°35'9 9.4
2015-May-20 02:33N 36°23' E 025°25'1 0.9
2015-May-20 01:33N 36°23' E 025°26'1817.0
2015-May-20 00:29N 36°29' E 025°04'9118.3
2015-May-19 19:29N 37°36' E 023°48'1617.0
2015-May-19 18:33N 37°50' E 023°37'7 7.1
2015-May-19 17:32N 37°57' E 023°38'0 0.0
2015-May-19 16:32N 37°57' E 023°38'0 0.0
2015-May-19 15:33N 37°57' E 023°38'0 0.0
2015-May-19 14:31N 37°57' E 023°38'0 0.0
2015-May-19 13:31N 37°57' E 023°38'1 0.9
2015-May-19 12:33N 37°56' E 023°38'1817.9
2015-May-19 11:33N 37°39' E 023°45'2019.5
2015-May-19 10:33N 37°21' E 023°37'2719.1
2015-May-19 09:08N 36°55' E 023°26'5712.0
2015-May-19 04:21N 36°00' E 023°45'1518.2
2015-May-19 03:32N 35°50' E 023°59'1818.0
2015-May-19 02:33N 35°38' E 024°15'1818.3
2015-May-19 01:33N 35°24' E 024°29'1 1.3
2015-May-19 00:33N 35°22' E 024°29'1814.8
2015-May-18 23:21N 35°35' E 024°14'1519.2
2015-May-18 22:33N 35°44' E 023°58'2018.9
2015-May-18 21:31N 35°55' E 023°39'3711.8
2015-May-18 18:25N 36°25' E 023°12'4118.9
2015-May-18 16:14N 37°04' E 023°29'1319.1
2015-May-18 15:33N 37°16' E 023°35'1818.4
2015-May-18 14:33N 37°34' E 023°41'1817.5
2015-May-18 13:33N 37°51' E 023°36'6 5.9
2015-May-18 12:30N 37°57' E 023°38'0 0.0
2015-May-18 11:25N 37°57' E 023°38'0 0.0
2015-May-18 10:31N 37°57' E 023°38'0 0.0
2015-May-18 08:27N 37°57' E 023°38'0 0.0
2015-May-18 07:33N 37°57' E 023°38'0 0.0
2015-May-18 06:16N 37°57' E 023°38'0 0.0
2015-May-18 05:32N 37°57' E 023°38'0 0.0
2015-May-18 04:23N 37°57' E 023°38'0 0.0
2015-May-18 03:33N 37°57' E 023°38'2 1.7
2015-May-18 02:34N 37°56' E 023°37'1818.1
2015-May-18 01:33N 37°39' E 023°44'1919.2
2015-May-18 00:33N 37°20' E 023°37'1918.4
2015-May-17 23:31N 37°02' E 023°29'1818.8
2015-May-17 22:33N 36°45' E 023°22'2218.6
2015-May-17 21:23N 36°25' E 023°13'18 8.0
2015-May-17 19:05N 36°10' E 023°27'2818.4
2015-May-17 17:33N 35°54' E 023°56'  
Track history (hours):
 
Tides and Currents Weather Stations Pressure Air Temp Water Temp Dewpoint Dewpoint Depression Visibility Wind Speed Wind Dir Waves Ship Positions

Prevelis

Last reported at 2015-May-27 17:10 UTC. Time now 2015-May-28 04:06 UTC.
Position N 35°56' E 027°22'.

Length 143 m; draft 5.5 m.

Type: Passenger vessel. MMSI: 239297000.

Date/timePositionNaut miles runAvg speedWind from/ knotsBaromVisibWave heightAir tempDewpointWater temp
2015-May-27 17:10N 35°56' E 027°22'2113.0
2015-May-27 15:31N 35°35' E 027°15'12 5.9
2015-May-27 13:28N 35°23' E 027°12'1410.6
2015-May-27 12:08N 35°25' E 026°55'1115.2
2015-May-27 11:24N 35°22' E 026°42'5610.9
2015-May-27 06:14N 36°00' E 025°51'1318.4
2015-May-27 05:33N 36°13' E 025°48'1010.0
2015-May-27 04:33N 36°20' E 025°40'1615.7
2015-May-27 03:33N 36°21' E 025°20'5 4.6
2015-May-27 02:33N 36°23' E 025°26'5 5.3
2015-May-27 01:33N 36°22' E 025°19'1817.6
2015-May-27 00:31N 36°31' E 024°59'8717.6
2015-May-26 19:34N 37°36' E 023°47'1716.5
2015-May-26 18:33N 37°51' E 023°37'6 6.2
2015-May-26 17:32N 37°57' E 023°38'0 0.0
2015-May-26 16:33N 37°57' E 023°38'0 0.0
2015-May-26 15:34N 37°57' E 023°38'0 0.0
2015-May-26 14:28N 37°57' E 023°38'0 0.0
2015-May-26 13:32N 37°57' E 023°38'2 2.1
2015-May-26 12:33N 37°55' E 023°37'1818.2
2015-May-26 11:33N 37°38' E 023°45'1918.9
2015-May-26 10:33N 37°20' E 023°36'2519.3
2015-May-26 09:15N 36°57' E 023°26'2019.2
2015-May-26 08:12N 36°37' E 023°18'5012.2
2015-May-26 04:07N 35°56' E 023°52'1118.9
2015-May-26 03:33N 35°49' E 024°01'83 7.2
2015-May-25 16:06N 37°07' E 023°29'1018.4
2015-May-25 15:34N 37°16' E 023°34'1818.1
2015-May-25 14:34N 37°34' E 023°41'1717.2
2015-May-25 13:34N 37°51' E 023°37'6 6.4
2015-May-25 12:33N 37°57' E 023°38'0 0.0
2015-May-25 11:33N 37°57' E 023°38'0 0.0
2015-May-25 10:31N 37°57' E 023°38'0 0.0
2015-May-25 09:29N 37°57' E 023°38'0 0.0
2015-May-25 08:32N 37°57' E 023°38'0 0.0
2015-May-25 07:33N 37°57' E 023°38'0 0.0
2015-May-25 06:31N 37°57' E 023°38'0 0.0
2015-May-25 05:25N 37°57' E 023°38'0 0.0
2015-May-25 04:32N 37°57' E 023°38'0 0.0
2015-May-25 03:33N 37°57' E 023°38'1 1.5
2015-May-25 02:33N 37°56' E 023°37'1717.3
2015-May-25 01:33N 37°40' E 023°45'2018.6
2015-May-25 00:28N 37°21' E 023°37'2418.8
2015-May-24 23:12N 36°59' E 023°25'10313.5
2015-May-24 15:33N 35°28' E 024°25'7 0.4
2015-May-24 00:28N 35°22' E 024°29'0 0.0
2015-May-23 23:22N 35°22' E 024°29'0 0.0
2015-May-23 20:33N 35°22' E 024°29'1514.9
2015-May-23 19:34N 35°35' E 024°19'2019.2
2015-May-23 18:32N 35°48' E 024°01'2319.3
2015-May-23 17:22N 35°59' E 023°37'20 2.0
2015-May-23 07:12N 35°51' E 023°60'1117.6
2015-May-23 06:33N 35°42' E 024°09'1818.4
2015-May-23 05:33N 35°29' E 024°24'7 7.1
2015-May-23 04:32N 35°22' E 024°29'0 0.0
2015-May-23 03:32N 35°22' E 024°29'10 9.6
2015-May-23 02:33N 35°32' E 024°29'1918.7
2015-May-23 01:33N 35°51' E 024°28'1716.8
2015-May-23 00:32N 36°02' E 024°13'2418.6
2015-May-22 23:15N 36°09' E 023°44'7212.0
2015-May-22 17:13N 37°21' E 023°37'1218.0
2015-May-22 16:33N 37°33' E 023°40'1818.0
2015-May-22 15:33N 37°50' E 023°37'7 6.3
2015-May-22 14:30N 37°57' E 023°38'0 0.0
2015-May-22 13:33N 37°57' E 023°38'0 0.0
2015-May-22 12:31N 37°57' E 023°38'0 0.0
2015-May-22 10:32N 37°57' E 023°38'0 0.0
2015-May-22 09:33N 37°57' E 023°38'0 0.0
2015-May-22 08:31N 37°57' E 023°38'0 0.0
2015-May-22 07:31N 37°57' E 023°38'0 0.0
2015-May-22 06:32N 37°57' E 023°38'0 0.0
2015-May-22 05:33N 37°57' E 023°38'1111.5
2015-May-22 04:33N 37°46' E 023°42'1918.9
2015-May-22 03:33N 37°31' E 023°57'8118.8
2015-May-21 23:14N 36°30' E 025°04'1318.9
2015-May-21 22:33N 36°23' E 025°18'6 6.1
2015-May-21 21:32N 36°23' E 025°26'5 4.5
2015-May-21 20:33N 36°19' E 025°27'1615.1
2015-May-21 19:31N 36°21' E 025°46'1516.1
2015-May-21 18:33N 36°05' E 025°50'5410.9
2015-May-21 13:34N 35°22' E 026°31'1817.9
2015-May-21 12:32N 35°25' E 026°53'1511.3
2015-May-21 11:14N 35°24' E 027°11'12 5.7
2015-May-21 09:12N 35°36' E 027°15'17 1.0
2015-May-20 16:25N 35°53' E 027°19'1110.6
2015-May-20 15:20N 35°42' E 027°15'72 7.4
2015-May-20 05:33N 36°03' E 025°50'1817.5
2015-May-20 04:33N 36°20' E 025°46'9 8.6
2015-May-20 03:33N 36°19' E 025°35'9 9.4
2015-May-20 02:33N 36°23' E 025°25'1 0.9
2015-May-20 01:33N 36°23' E 025°26'1817.0
2015-May-20 00:29N 36°29' E 025°04'9118.3
2015-May-19 19:29N 37°36' E 023°48'1617.0
2015-May-19 18:33N 37°50' E 023°37'7 7.1
2015-May-19 17:32N 37°57' E 023°38'0 0.0
2015-May-19 16:32N 37°57' E 023°38'0 0.0
2015-May-19 15:33N 37°57' E 023°38'0 0.0
2015-May-19 14:31N 37°57' E 023°38'0 0.0
2015-May-19 13:31N 37°57' E 023°38'1 0.9
2015-May-19 12:33N 37°56' E 023°38'1817.9
2015-May-19 11:33N 37°39' E 023°45'2019.5
2015-May-19 10:33N 37°21' E 023°37'2719.1
2015-May-19 09:08N 36°55' E 023°26'5712.0
2015-May-19 04:21N 36°00' E 023°45'1518.2
2015-May-19 03:32N 35°50' E 023°59'1818.0
2015-May-19 02:33N 35°38' E 024°15'1818.3
2015-May-19 01:33N 35°24' E 024°29'1 1.3
2015-May-19 00:33N 35°22' E 024°29'1814.8
2015-May-18 23:21N 35°35' E 024°14'1519.2
2015-May-18 22:33N 35°44' E 023°58'2018.9
2015-May-18 21:31N 35°55' E 023°39'3711.8
2015-May-18 18:25N 36°25' E 023°12'4118.9
2015-May-18 16:14N 37°04' E 023°29'1319.1
2015-May-18 15:33N 37°16' E 023°35'1818.4
2015-May-18 14:33N 37°34' E 023°41'1817.5
2015-May-18 13:33N 37°51' E 023°36'6 5.9
2015-May-18 12:30N 37°57' E 023°38'0 0.0
2015-May-18 11:25N 37°57' E 023°38'0 0.0
2015-May-18 10:31N 37°57' E 023°38'0 0.0
2015-May-18 08:27N 37°57' E 023°38'0 0.0
2015-May-18 07:33N 37°57' E 023°38'0 0.0
2015-May-18 06:16N 37°57' E 023°38'0 0.0
2015-May-18 05:32N 37°57' E 023°38'0 0.0
2015-May-18 04:23N 37°57' E 023°38'0 0.0
2015-May-18 03:33N 37°57' E 023°38'2 1.7
2015-May-18 02:34N 37°56' E 023°37'1818.1
2015-May-18 01:33N 37°39' E 023°44'1919.2
2015-May-18 00:33N 37°20' E 023°37'1918.4
2015-May-17 23:31N 37°02' E 023°29'1818.8
2015-May-17 22:33N 36°45' E 023°22'2218.6
2015-May-17 21:23N 36°25' E 023°13'18 8.0
2015-May-17 19:05N 36°10' E 023°27'2818.4
2015-May-17 17:33N 35°54' E 023°56'  

Dump ship's entire track history